sensor_id;sensor_type;location;lat;lon;timestamp;temperature;humidity
1205;DHT22;592;48.764;9.174;2023-03-03T00:01:30;2.80;99.90
1205;DHT22;592;48.764;9.174;2023-03-03T00:03:58;2.80;99.90
1205;DHT22;592;48.764;9.174;2023-03-03T00:06:25;2.70;99.90
1205;DHT22;592;48.764;9.174;2023-03-03T00:08:52;2.70;99.90
1205;DHT22;592;48.764;9.174;2023-03-03T00:11:18;2.70;99.90
1205;DHT22;592;48.764;9.174;2023-03-03T00:13:46;2.70;99.90
1205;DHT22;592;48.764;9.174;2023-03-03T00:16:16;2.60;99.90
1205;DHT22;592;48.764;9.174;2023-03-03T00:18:48;2.60;99.90
1205;DHT22;592;48.764;9.174;2023-03-03T00:21:23;2.60;99.90
1205;DHT22;592;48.764;9.174;2023-03-03T00:23:54;2.60;99.90
1205;DHT22;592;48.764;9.174;2023-03-03T00:26:23;2.60;99.90
1205;DHT22;592;48.764;9.174;2023-03-03T00:28:54;2.60;99.90
1205;DHT22;592;48.764;9.174;2023-03-03T00:31:30;2.60;99.90
1205;DHT22;592;48.764;9.174;2023-03-03T00:34:10;2.60;99.90
1205;DHT22;592;48.764;9.174;2023-03-03T00:36:46;2.50;99.90
1205;DHT22;592;48.764;9.174;2023-03-03T00:39:20;2.50;99.90
1205;DHT22;592;48.764;9.174;2023-03-03T00:41:49;2.40;99.90
1205;DHT22;592;48.764;9.174;2023-03-03T00:44:40;2.40;99.90
1205;DHT22;592;48.764;9.174;2023-03-03T00:47:26;2.20;99.90
1205;DHT22;592;48.764;9.174;2023-03-03T00:49:58;2.20;99.90
1205;DHT22;592;48.764;9.174;2023-03-03T00:52:26;2.20;99.90
1205;DHT22;592;48.764;9.174;2023-03-03T00:54:54;2.30;99.90
1205;DHT22;592;48.764;9.174;2023-03-03T00:57:20;2.30;99.90
1205;DHT22;592;48.764;9.174;2023-03-03T00:59:47;2.20;99.90
1205;DHT22;592;48.764;9.174;2023-03-03T01:02:14;2.10;99.90
1205;DHT22;592;48.764;9.174;2023-03-03T01:04:42;2.10;99.90
1205;DHT22;592;48.764;9.174;2023-03-03T01:07:11;2.00;99.90
1205;DHT22;592;48.764;9.174;2023-03-03T01:09:37;2.00;99.90
1205;DHT22;592;48.764;9.174;2023-03-03T01:12:05;2.10;99.90
1205;DHT22;592;48.764;9.174;2023-03-03T01:14:32;2.10;99.90
1205;DHT22;592;48.764;9.174;2023-03-03T01:16:59;2.10;99.90
1205;DHT22;592;48.764;9.174;2023-03-03T01:19:25;2.10;99.90
1205;DHT22;592;48.764;9.174;2023-03-03T01:21:52;2.00;99.90
1205;DHT22;592;48.764;9.174;2023-03-03T01:24:20;2.00;99.90
1205;DHT22;592;48.764;9.174;2023-03-03T01:26:47;2.00;99.90
1205;DHT22;592;48.764;9.174;2023-03-03T01:29:14;1.80;99.90
1205;DHT22;592;48.764;9.174;2023-03-03T01:31:40;1.90;99.90
1205;DHT22;592;48.764;9.174;2023-03-03T01:34:07;1.80;99.90
1205;DHT22;592;48.764;9.174;2023-03-03T01:36:34;1.70;99.90
1205;DHT22;592;48.764;9.174;2023-03-03T01:39:02;1.60;99.90
1205;DHT22;592;48.764;9.174;2023-03-03T01:41:30;1.60;99.90
1205;DHT22;592;48.764;9.174;2023-03-03T01:43:58;1.70;99.90
1205;DHT22;592;48.764;9.174;2023-03-03T01:46:32;1.60;99.90
1205;DHT22;592;48.764;9.174;2023-03-03T01:49:02;1.60;99.90
1205;DHT22;592;48.764;9.174;2023-03-03T01:51:33;1.60;99.90
1205;DHT22;592;48.764;9.174;2023-03-03T01:54:03;1.60;99.90
1205;DHT22;592;48.764;9.174;2023-03-03T01:56:31;1.70;99.90
1205;DHT22;592;48.764;9.174;2023-03-03T01:59:00;1.60;99.90
1205;DHT22;592;48.764;9.174;2023-03-03T02:01:28;1.60;99.90
1205;DHT22;592;48.764;9.174;2023-03-03T02:03:55;1.70;99.90
1205;DHT22;592;48.764;9.174;2023-03-03T02:06:25;1.60;99.90
1205;DHT22;592;48.764;9.174;2023-03-03T02:08:59;1.60;99.90
1205;DHT22;592;48.764;9.174;2023-03-03T02:11:29;1.60;99.90
1205;DHT22;592;48.764;9.174;2023-03-03T02:13:58;1.60;99.90
1205;DHT22;592;48.764;9.174;2023-03-03T02:16:25;1.50;99.90
1205;DHT22;592;48.764;9.174;2023-03-03T02:18:52;1.40;99.90
1205;DHT22;592;48.764;9.174;2023-03-03T02:21:20;1.40;99.90
1205;DHT22;592;48.764;9.174;2023-03-03T02:23:52;1.40;99.90
1205;DHT22;592;48.764;9.174;2023-03-03T02:26:24;1.30;99.90
1205;DHT22;592;48.764;9.174;2023-03-03T02:28:51;1.30;99.90
1205;DHT22;592;48.764;9.174;2023-03-03T02:31:20;1.30;99.90
1205;DHT22;592;48.764;9.174;2023-03-03T02:33:49;1.40;99.90
1205;DHT22;592;48.764;9.174;2023-03-03T02:36:18;1.30;99.90
1205;DHT22;592;48.764;9.174;2023-03-03T02:38:50;1.40;99.90
1205;DHT22;592;48.764;9.174;2023-03-03T02:41:28;1.40;99.90
1205;DHT22;592;48.764;9.174;2023-03-03T02:43:58;1.20;99.90
1205;DHT22;592;48.764;9.174;2023-03-03T02:46:27;1.40;99.90
1205;DHT22;592;48.764;9.174;2023-03-03T02:48:54;1.40;99.90
1205;DHT22;592;48.764;9.174;2023-03-03T02:51:21;1.50;99.90
1205;DHT22;592;48.764;9.174;2023-03-03T02:53:48;1.50;99.90
1205;DHT22;592;48.764;9.174;2023-03-03T02:56:15;1.50;99.90
1205;DHT22;592;48.764;9.174;2023-03-03T02:58:43;1.50;99.90
1205;DHT22;592;48.764;9.174;2023-03-03T03:01:10;1.60;99.90
1205;DHT22;592;48.764;9.174;2023-03-03T03:03:37;1.70;99.90
1205;DHT22;592;48.764;9.174;2023-03-03T03:06:04;1.70;99.90
1205;DHT22;592;48.764;9.174;2023-03-03T03:08:30;1.70;99.90
1205;DHT22;592;48.764;9.174;2023-03-03T03:10:57;1.70;99.90
1205;DHT22;592;48.764;9.174;2023-03-03T03:13:24;1.70;99.90
1205;DHT22;592;48.764;9.174;2023-03-03T03:15:53;1.80;99.90
1205;DHT22;592;48.764;9.174;2023-03-03T03:18:19;1.90;99.90
1205;DHT22;592;48.764;9.174;2023-03-03T03:20:46;1.80;99.90
1205;DHT22;592;48.764;9.174;2023-03-03T03:23:13;1.90;99.90
1205;DHT22;592;48.764;9.174;2023-03-03T03:25:39;1.90;99.90
1205;DHT22;592;48.764;9.174;2023-03-03T03:28:10;1.90;99.90
1205;DHT22;592;48.764;9.174;2023-03-03T03:30:37;1.80;99.90
1205;DHT22;592;48.764;9.174;2023-03-03T03:33:06;1.90;99.90
1205;DHT22;592;48.764;9.174;2023-03-03T03:35:35;1.90;99.90
1205;DHT22;592;48.764;9.174;2023-03-03T03:38:02;2.00;99.90
1205;DHT22;592;48.764;9.174;2023-03-03T03:40:29;2.00;99.90
1205;DHT22;592;48.764;9.174;2023-03-03T03:42:56;2.10;99.90
1205;DHT22;592;48.764;9.174;2023-03-03T03:45:23;2.10;99.90
1205;DHT22;592;48.764;9.174;2023-03-03T03:47:49;2.00;99.90
1205;DHT22;592;48.764;9.174;2023-03-03T03:50:17;2.00;99.90
1205;DHT22;592;48.764;9.174;2023-03-03T03:52:44;2.00;99.90
1205;DHT22;592;48.764;9.174;2023-03-03T03:55:11;2.10;99.90
1205;DHT22;592;48.764;9.174;2023-03-03T03:57:37;1.90;99.90
1205;DHT22;592;48.764;9.174;2023-03-03T04:00:06;2.00;99.90
1205;DHT22;592;48.764;9.174;2023-03-03T04:02:33;2.00;99.90
1205;DHT22;592;48.764;9.174;2023-03-03T04:05:00;2.10;99.90
1205;DHT22;592;48.764;9.174;2023-03-03T04:07:28;2.20;99.90
1205;DHT22;592;48.764;9.174;2023-03-03T04:09:55;2.20;99.90
1205;DHT22;592;48.764;9.174;2023-03-03T04:12:21;2.30;99.90
1205;DHT22;592;48.764;9.174;2023-03-03T04:14:48;2.20;99.90
1205;DHT22;592;48.764;9.174;2023-03-03T04:17:16;2.20;99.90
1205;DHT22;592;48.764;9.174;2023-03-03T04:19:43;2.30;99.90
1205;DHT22;592;48.764;9.174;2023-03-03T04:22:10;2.40;99.90
1205;DHT22;592;48.764;9.174;2023-03-03T04:24:38;2.40;99.90
1205;DHT22;592;48.764;9.174;2023-03-03T04:27:05;2.50;99.90
1205;DHT22;592;48.764;9.174;2023-03-03T04:29:33;2.50;99.90
1205;DHT22;592;48.764;9.174;2023-03-03T04:31:59;2.50;99.90
1205;DHT22;592;48.764;9.174;2023-03-03T04:34:26;2.50;99.90
1205;DHT22;592;48.764;9.174;2023-03-03T04:36:53;2.50;99.90
1205;DHT22;592;48.764;9.174;2023-03-03T04:39:20;2.50;99.90
1205;DHT22;592;48.764;9.174;2023-03-03T04:41:48;2.60;99.90
1205;DHT22;592;48.764;9.174;2023-03-03T04:44:14;2.60;99.90
1205;DHT22;592;48.764;9.174;2023-03-03T04:46:41;2.70;99.90
1205;DHT22;592;48.764;9.174;2023-03-03T04:49:08;2.70;99.90
1205;DHT22;592;48.764;9.174;2023-03-03T04:51:34;2.70;99.90
1205;DHT22;592;48.764;9.174;2023-03-03T04:54:01;2.80;99.90
1205;DHT22;592;48.764;9.174;2023-03-03T04:56:29;2.80;99.90
1205;DHT22;592;48.764;9.174;2023-03-03T04:58:58;2.60;99.90
1205;DHT22;592;48.764;9.174;2023-03-03T05:01:24;2.60;99.90
1205;DHT22;592;48.764;9.174;2023-03-03T05:03:51;2.70;99.90
1205;DHT22;592;48.764;9.174;2023-03-03T05:06:18;2.70;99.90
1205;DHT22;592;48.764;9.174;2023-03-03T05:08:45;2.80;99.90
1205;DHT22;592;48.764;9.174;2023-03-03T05:11:11;2.80;99.90
1205;DHT22;592;48.764;9.174;2023-03-03T05:13:39;2.90;99.90
1205;DHT22;592;48.764;9.174;2023-03-03T05:16:07;2.80;99.90
1205;DHT22;592;48.764;9.174;2023-03-03T05:18:34;2.80;99.90
1205;DHT22;592;48.764;9.174;2023-03-03T05:21:01;2.80;99.90
1205;DHT22;592;48.764;9.174;2023-03-03T05:23:27;2.80;99.90
1205;DHT22;592;48.764;9.174;2023-03-03T05:25:54;2.70;99.90
1205;DHT22;592;48.764;9.174;2023-03-03T05:28:21;2.80;99.90
1205;DHT22;592;48.764;9.174;2023-03-03T05:30:48;2.70;99.90
1205;DHT22;592;48.764;9.174;2023-03-03T05:33:16;2.70;99.90
1205;DHT22;592;48.764;9.174;2023-03-03T05:35:43;2.70;99.90
1205;DHT22;592;48.764;9.174;2023-03-03T05:38:10;2.60;99.90
1205;DHT22;592;48.764;9.174;2023-03-03T05:40:38;2.60;99.90
1205;DHT22;592;48.764;9.174;2023-03-03T05:43:04;2.60;99.90
1205;DHT22;592;48.764;9.174;2023-03-03T05:45:31;2.50;99.90
1205;DHT22;592;48.764;9.174;2023-03-03T05:47:59;2.50;99.90
1205;DHT22;592;48.764;9.174;2023-03-03T05:50:27;2.50;99.90
1205;DHT22;592;48.764;9.174;2023-03-03T05:52:54;2.50;99.90
1205;DHT22;592;48.764;9.174;2023-03-03T05:55:21;2.50;99.90
1205;DHT22;592;48.764;9.174;2023-03-03T05:57:47;2.40;99.90
1205;DHT22;592;48.764;9.174;2023-03-03T06:00:15;2.40;99.90
1205;DHT22;592;48.764;9.174;2023-03-03T06:02:42;2.40;99.90
1205;DHT22;592;48.764;9.174;2023-03-03T06:05:09;2.40;99.90
1205;DHT22;592;48.764;9.174;2023-03-03T06:07:38;2.40;99.90
1205;DHT22;592;48.764;9.174;2023-03-03T06:10:06;2.40;99.90
1205;DHT22;592;48.764;9.174;2023-03-03T06:12:32;2.40;99.90
1205;DHT22;592;48.764;9.174;2023-03-03T06:14:59;2.40;99.90
1205;DHT22;592;48.764;9.174;2023-03-03T06:17:26;2.40;99.90
1205;DHT22;592;48.764;9.174;2023-03-03T06:19:53;2.40;99.90
1205;DHT22;592;48.764;9.174;2023-03-03T06:22:19;2.40;99.90
1205;DHT22;592;48.764;9.174;2023-03-03T06:24:49;2.40;99.90
1205;DHT22;592;48.764;9.174;2023-03-03T06:27:17;2.40;99.90
1205;DHT22;592;48.764;9.174;2023-03-03T06:29:43;2.40;99.90
1205;DHT22;592;48.764;9.174;2023-03-03T06:32:10;2.40;99.90
1205;DHT22;592;48.764;9.174;2023-03-03T06:34:37;2.50;99.90
1205;DHT22;592;48.764;9.174;2023-03-03T06:37:04;2.50;99.90
1205;DHT22;592;48.764;9.174;2023-03-03T06:39:30;2.60;99.90
1205;DHT22;592;48.764;9.174;2023-03-03T06:41:58;2.50;99.90
1205;DHT22;592;48.764;9.174;2023-03-03T06:44:25;2.50;99.90
1205;DHT22;592;48.764;9.174;2023-03-03T06:46:52;2.50;99.90
1205;DHT22;592;48.764;9.174;2023-03-03T06:49:21;2.60;99.90
1205;DHT22;592;48.764;9.174;2023-03-03T06:51:48;2.60;99.90
1205;DHT22;592;48.764;9.174;2023-03-03T06:54:17;2.50;99.90
1205;DHT22;592;48.764;9.174;2023-03-03T06:56:45;2.50;99.90
1205;DHT22;592;48.764;9.174;2023-03-03T06:59:16;2.50;99.90
1205;DHT22;592;48.764;9.174;2023-03-03T07:01:44;2.50;99.90
1205;DHT22;592;48.764;9.174;2023-03-03T07:04:24;2.60;99.90
1205;DHT22;592;48.764;9.174;2023-03-03T07:06:53;2.60;99.90
1205;DHT22;592;48.764;9.174;2023-03-03T07:09:22;2.70;99.90
1205;DHT22;592;48.764;9.174;2023-03-03T07:11:49;2.60;99.90
1205;DHT22;592;48.764;9.174;2023-03-03T07:14:18;2.60;99.90
1205;DHT22;592;48.764;9.174;2023-03-03T07:16:45;2.60;99.90
1205;DHT22;592;48.764;9.174;2023-03-03T07:19:18;2.70;99.90
1205;DHT22;592;48.764;9.174;2023-03-03T07:21:45;2.60;99.90
1205;DHT22;592;48.764;9.174;2023-03-03T07:24:21;2.60;99.90
1205;DHT22;592;48.764;9.174;2023-03-03T07:26:49;2.60;99.90
1205;DHT22;592;48.764;9.174;2023-03-03T07:29:22;2.70;99.90
1205;DHT22;592;48.764;9.174;2023-03-03T07:31:50;2.60;99.90
1205;DHT22;592;48.764;9.174;2023-03-03T07:34:20;2.70;99.90
1205;DHT22;592;48.764;9.174;2023-03-03T07:36:49;2.70;99.90
1205;DHT22;592;48.764;9.174;2023-03-03T07:39:29;2.80;99.90
1205;DHT22;592;48.764;9.174;2023-03-03T07:42:02;2.90;99.90
1205;DHT22;592;48.764;9.174;2023-03-03T07:44:37;3.00;99.90
1205;DHT22;592;48.764;9.174;2023-03-03T07:47:20;3.10;99.90
1205;DHT22;592;48.764;9.174;2023-03-03T07:49:48;3.20;99.90
1205;DHT22;592;48.764;9.174;2023-03-03T07:52:28;3.20;99.90
1205;DHT22;592;48.764;9.174;2023-03-03T07:54:56;3.20;99.90
1205;DHT22;592;48.764;9.174;2023-03-03T07:57:25;3.20;99.90
1205;DHT22;592;48.764;9.174;2023-03-03T07:59:57;3.30;99.90
1205;DHT22;592;48.764;9.174;2023-03-03T08:02:43;3.40;99.90
1205;DHT22;592;48.764;9.174;2023-03-03T08:05:29;3.50;99.90
1205;DHT22;592;48.764;9.174;2023-03-03T08:08:18;3.60;99.90
1205;DHT22;592;48.764;9.174;2023-03-03T08:10:48;3.60;99.90
1205;DHT22;592;48.764;9.174;2023-03-03T08:13:17;3.90;99.90
1205;DHT22;592;48.764;9.174;2023-03-03T08:15:49;4.10;99.90
1205;DHT22;592;48.764;9.174;2023-03-03T08:18:22;4.30;99.90
1205;DHT22;592;48.764;9.174;2023-03-03T08:20:55;4.50;99.90
1205;DHT22;592;48.764;9.174;2023-03-03T08:23:22;4.60;99.90
1205;DHT22;592;48.764;9.174;2023-03-03T08:25:50;4.30;99.90
1205;DHT22;592;48.764;9.174;2023-03-03T08:28:18;4.10;99.90
1205;DHT22;592;48.764;9.174;2023-03-03T08:30:47;4.00;99.90
1205;DHT22;592;48.764;9.174;2023-03-03T08:33:15;4.10;99.90
1205;DHT22;592;48.764;9.174;2023-03-03T08:35:42;4.20;99.90
1205;DHT22;592;48.764;9.174;2023-03-03T08:38:10;4.10;99.90
1205;DHT22;592;48.764;9.174;2023-03-03T08:40:37;4.00;99.90
1205;DHT22;592;48.764;9.174;2023-03-03T08:43:04;3.90;99.90
1205;DHT22;592;48.764;9.174;2023-03-03T08:45:31;4.00;99.90
1205;DHT22;592;48.764;9.174;2023-03-03T08:47:59;4.00;99.90
1205;DHT22;592;48.764;9.174;2023-03-03T08:50:27;4.10;99.90
1205;DHT22;592;48.764;9.174;2023-03-03T08:52:54;4.20;99.90
1205;DHT22;592;48.764;9.174;2023-03-03T08:55:21;4.20;99.90
1205;DHT22;592;48.764;9.174;2023-03-03T08:57:50;4.20;99.90
1205;DHT22;592;48.764;9.174;2023-03-03T09:00:17;4.20;99.90
1205;DHT22;592;48.764;9.174;2023-03-03T09:02:44;4.10;99.90
1205;DHT22;592;48.764;9.174;2023-03-03T09:05:12;4.20;99.90
1205;DHT22;592;48.764;9.174;2023-03-03T09:07:40;4.20;99.90
1205;DHT22;592;48.764;9.174;2023-03-03T09:10:08;4.20;99.90
1205;DHT22;592;48.764;9.174;2023-03-03T09:12:38;4.30;99.90
1205;DHT22;592;48.764;9.174;2023-03-03T09:15:15;4.30;99.90
1205;DHT22;592;48.764;9.174;2023-03-03T09:17:43;4.30;99.90
1205;DHT22;592;48.764;9.174;2023-03-03T09:20:22;4.30;99.90
1205;DHT22;592;48.764;9.174;2023-03-03T09:22:49;4.30;99.90
1205;DHT22;592;48.764;9.174;2023-03-03T09:25:22;4.50;99.90
1205;DHT22;592;48.764;9.174;2023-03-03T09:27:51;4.50;99.90
1205;DHT22;592;48.764;9.174;2023-03-03T09:30:36;4.60;99.90
1205;DHT22;592;48.764;9.174;2023-03-03T09:33:21;4.70;99.90
1205;DHT22;592;48.764;9.174;2023-03-03T09:35:52;4.90;99.90
1205;DHT22;592;48.764;9.174;2023-03-03T09:38:26;5.10;99.90
1205;DHT22;592;48.764;9.174;2023-03-03T09:41:14;5.20;99.90
1205;DHT22;592;48.764;9.174;2023-03-03T09:43:50;5.30;99.90
1205;DHT22;592;48.764;9.174;2023-03-03T09:46:26;5.50;99.90
1205;DHT22;592;48.764;9.174;2023-03-03T09:49:03;5.50;99.90
1205;DHT22;592;48.764;9.174;2023-03-03T09:51:55;5.40;99.90
1205;DHT22;592;48.764;9.174;2023-03-03T09:54:42;5.30;99.90
1205;DHT22;592;48.764;9.174;2023-03-03T09:57:15;5.30;99.90
1205;DHT22;592;48.764;9.174;2023-03-03T09:59:55;5.40;99.90
1205;DHT22;592;48.764;9.174;2023-03-03T10:02:37;5.60;99.90
1205;DHT22;592;48.764;9.174;2023-03-03T10:05:20;5.70;99.90
1205;DHT22;592;48.764;9.174;2023-03-03T10:08:02;5.80;99.90
1205;DHT22;592;48.764;9.174;2023-03-03T10:10:44;5.80;99.90
1205;DHT22;592;48.764;9.174;2023-03-03T10:13:20;6.10;99.90
1205;DHT22;592;48.764;9.174;2023-03-03T10:15:57;6.30;99.90
1205;DHT22;592;48.764;9.174;2023-03-03T10:18:29;6.40;99.90
1205;DHT22;592;48.764;9.174;2023-03-03T10:21:03;6.50;99.90
1205;DHT22;592;48.764;9.174;2023-03-03T10:23:51;6.50;99.90
1205;DHT22;592;48.764;9.174;2023-03-03T10:26:27;6.40;99.90
1205;DHT22;592;48.764;9.174;2023-03-03T10:29:21;6.30;99.90
1205;DHT22;592;48.764;9.174;2023-03-03T10:32:20;6.30;99.90
1205;DHT22;592;48.764;9.174;2023-03-03T10:35:04;6.30;99.90
1205;DHT22;592;48.764;9.174;2023-03-03T10:37:41;6.30;99.90
1205;DHT22;592;48.764;9.174;2023-03-03T10:40:17;6.30;99.90
1205;DHT22;592;48.764;9.174;2023-03-03T10:43:03;6.30;99.90
1205;DHT22;592;48.764;9.174;2023-03-03T10:45:50;6.40;99.90
1205;DHT22;592;48.764;9.174;2023-03-03T10:48:50;6.40;99.90
1205;DHT22;592;48.764;9.174;2023-03-03T10:51:27;6.50;99.90
1205;DHT22;592;48.764;9.174;2023-03-03T10:54:06;6.50;99.90
1205;DHT22;592;48.764;9.174;2023-03-03T10:56:43;6.60;99.90
1205;DHT22;592;48.764;9.174;2023-03-03T10:59:23;6.60;99.90
1205;DHT22;592;48.764;9.174;2023-03-03T11:01:56;6.30;99.90
1205;DHT22;592;48.764;9.174;2023-03-03T11:07:41;6.30;99.90
1205;DHT22;592;48.764;9.174;2023-03-03T11:10:41;6.40;99.90
1205;DHT22;592;48.764;9.174;2023-03-03T11:13:16;6.60;99.90
1205;DHT22;592;48.764;9.174;2023-03-03T11:15:52;6.50;99.90
1205;DHT22;592;48.764;9.174;2023-03-03T11:18:30;6.50;99.90
1205;DHT22;592;48.764;9.174;2023-03-03T11:21:07;6.70;99.90
1205;DHT22;592;48.764;9.174;2023-03-03T11:23:54;6.90;99.90
1205;DHT22;592;48.764;9.174;2023-03-03T11:26:33;6.90;99.90
1205;DHT22;592;48.764;9.174;2023-03-03T11:29:23;7.00;99.90
1205;DHT22;592;48.764;9.174;2023-03-03T11:31:55;7.10;99.90
1205;DHT22;592;48.764;9.174;2023-03-03T11:34:42;7.10;99.90
1205;DHT22;592;48.764;9.174;2023-03-03T11:37:16;7.20;99.90
1205;DHT22;592;48.764;9.174;2023-03-03T11:39:44;7.10;99.90
1205;DHT22;592;48.764;9.174;2023-03-03T11:42:16;6.90;99.90
1205;DHT22;592;48.764;9.174;2023-03-03T11:44:49;7.00;99.90
1205;DHT22;592;48.764;9.174;2023-03-03T11:47:22;7.00;99.90
1205;DHT22;592;48.764;9.174;2023-03-03T11:49:56;7.10;99.90
1205;DHT22;592;48.764;9.174;2023-03-03T11:52:31;7.20;99.90
1205;DHT22;592;48.764;9.174;2023-03-03T11:55:02;7.20;99.90
1205;DHT22;592;48.764;9.174;2023-03-03T11:57:34;7.10;99.90
1205;DHT22;592;48.764;9.174;2023-03-03T12:00:18;7.30;99.90
1205;DHT22;592;48.764;9.174;2023-03-03T12:03:16;7.10;99.90
1205;DHT22;592;48.764;9.174;2023-03-03T12:05:55;7.30;99.90
1205;DHT22;592;48.764;9.174;2023-03-03T12:08:42;7.30;99.90
1205;DHT22;592;48.764;9.174;2023-03-03T12:11:15;7.30;99.90
1205;DHT22;592;48.764;9.174;2023-03-03T12:13:52;7.40;99.90
1205;DHT22;592;48.764;9.174;2023-03-03T12:16:30;7.30;99.90
1205;DHT22;592;48.764;9.174;2023-03-03T12:19:09;7.40;99.90
1205;DHT22;592;48.764;9.174;2023-03-03T12:21:54;7.30;99.90
1205;DHT22;592;48.764;9.174;2023-03-03T12:24:31;7.40;99.90
1205;DHT22;592;48.764;9.174;2023-03-03T12:27:09;7.30;99.90
1205;DHT22;592;48.764;9.174;2023-03-03T12:29:41;7.30;99.90
1205;DHT22;592;48.764;9.174;2023-03-03T12:32:21;7.40;99.90
1205;DHT22;592;48.764;9.174;2023-03-03T12:34:54;7.40;99.90
1205;DHT22;592;48.764;9.174;2023-03-03T12:37:50;7.50;99.90
1205;DHT22;592;48.764;9.174;2023-03-03T12:40:24;7.60;99.90
1205;DHT22;592;48.764;9.174;2023-03-03T12:43:02;7.50;99.90
1205;DHT22;592;48.764;9.174;2023-03-03T12:45:39;7.50;99.90
1205;DHT22;592;48.764;9.174;2023-03-03T12:48:15;7.40;99.90
1205;DHT22;592;48.764;9.174;2023-03-03T12:50:50;7.60;99.90
1205;DHT22;592;48.764;9.174;2023-03-03T12:53:32;7.60;99.90
1205;DHT22;592;48.764;9.174;2023-03-03T12:56:05;7.70;99.90
1205;DHT22;592;48.764;9.174;2023-03-03T12:58:41;7.70;99.90
1205;DHT22;592;48.764;9.174;2023-03-03T13:01:21;7.50;99.90
1205;DHT22;592;48.764;9.174;2023-03-03T13:04:02;7.50;99.90
1205;DHT22;592;48.764;9.174;2023-03-03T13:06:35;7.70;99.90
1205;DHT22;592;48.764;9.174;2023-03-03T13:09:18;7.90;99.90
1205;DHT22;592;48.764;9.174;2023-03-03T13:11:59;7.90;99.90
1205;DHT22;592;48.764;9.174;2023-03-03T13:14:34;8.00;99.90
1205;DHT22;592;48.764;9.174;2023-03-03T13:17:14;8.00;99.90
1205;DHT22;592;48.764;9.174;2023-03-03T13:19:48;8.10;99.90
1205;DHT22;592;48.764;9.174;2023-03-03T13:22:29;8.00;99.90
1205;DHT22;592;48.764;9.174;2023-03-03T13:25:00;8.40;99.90
1205;DHT22;592;48.764;9.174;2023-03-03T13:27:33;7.90;99.90
1205;DHT22;592;48.764;9.174;2023-03-03T13:30:14;8.10;99.90
1205;DHT22;592;48.764;9.174;2023-03-03T13:32:48;8.00;99.90
1205;DHT22;592;48.764;9.174;2023-03-03T13:35:35;8.10;99.90
1205;DHT22;592;48.764;9.174;2023-03-03T13:38:04;8.10;99.90
1205;DHT22;592;48.764;9.174;2023-03-03T13:40:40;8.20;99.90
1205;DHT22;592;48.764;9.174;2023-03-03T13:43:13;8.20;99.90
1205;DHT22;592;48.764;9.174;2023-03-03T13:45:56;8.30;99.90
1205;DHT22;592;48.764;9.174;2023-03-03T13:48:39;8.50;99.90
1205;DHT22;592;48.764;9.174;2023-03-03T13:51:17;8.70;99.90
1205;DHT22;592;48.764;9.174;2023-03-03T13:53:52;8.90;99.90
1205;DHT22;592;48.764;9.174;2023-03-03T13:56:32;9.10;99.90
1205;DHT22;592;48.764;9.174;2023-03-03T13:59:08;9.00;99.90
1205;DHT22;592;48.764;9.174;2023-03-03T14:01:46;9.10;99.90
1205;DHT22;592;48.764;9.174;2023-03-03T14:04:31;9.00;99.90
1205;DHT22;592;48.764;9.174;2023-03-03T14:07:06;9.10;99.90
1205;DHT22;592;48.764;9.174;2023-03-03T14:09:48;9.20;99.90
1205;DHT22;592;48.764;9.174;2023-03-03T14:12:23;9.40;99.90
1205;DHT22;592;48.764;9.174;2023-03-03T14:14:58;9.70;99.90
1205;DHT22;592;48.764;9.174;2023-03-03T14:17:36;10.10;99.90
1205;DHT22;592;48.764;9.174;2023-03-03T14:20:14;10.00;99.70
1205;DHT22;592;48.764;9.174;2023-03-03T14:22:50;10.20;99.90
1205;DHT22;592;48.764;9.174;2023-03-03T14:25:18;10.10;99.10
1205;DHT22;592;48.764;9.174;2023-03-03T14:28:01;10.10;99.50
1205;DHT22;592;48.764;9.174;2023-03-03T14:30:33;10.30;99.70
1205;DHT22;592;48.764;9.174;2023-03-03T14:33:15;10.20;99.00
1205;DHT22;592;48.764;9.174;2023-03-03T14:35:43;9.70;99.20
1205;DHT22;592;48.764;9.174;2023-03-03T14:38:17;9.80;99.70
1205;DHT22;592;48.764;9.174;2023-03-03T14:40:45;10.00;99.60
1205;DHT22;592;48.764;9.174;2023-03-03T14:43:22;10.10;99.30
1205;DHT22;592;48.764;9.174;2023-03-03T14:45:49;10.40;99.20
1205;DHT22;592;48.764;9.174;2023-03-03T14:48:18;10.40;98.70
1205;DHT22;592;48.764;9.174;2023-03-03T14:50:48;10.40;99.10
1205;DHT22;592;48.764;9.174;2023-03-03T14:53:29;10.60;99.30
1205;DHT22;592;48.764;9.174;2023-03-03T14:56:14;10.50;98.70
1205;DHT22;592;48.764;9.174;2023-03-03T14:58:42;10.70;99.00
1205;DHT22;592;48.764;9.174;2023-03-03T15:01:15;10.70;99.50
1205;DHT22;592;48.764;9.174;2023-03-03T15:03:47;10.60;98.60
1205;DHT22;592;48.764;9.174;2023-03-03T15:06:32;10.90;99.70
1205;DHT22;592;48.764;9.174;2023-03-03T15:09:20;10.70;98.50
1205;DHT22;592;48.764;9.174;2023-03-03T15:11:51;10.60;98.60
1205;DHT22;592;48.764;9.174;2023-03-03T15:14:20;10.70;98.40
1205;DHT22;592;48.764;9.174;2023-03-03T15:16:47;10.80;98.60
1205;DHT22;592;48.764;9.174;2023-03-03T15:19:32;11.10;98.10
1205;DHT22;592;48.764;9.174;2023-03-03T15:22:09;10.90;97.80
1205;DHT22;592;48.764;9.174;2023-03-03T15:24:41;11.30;98.20
1205;DHT22;592;48.764;9.174;2023-03-03T15:27:17;11.60;98.80
1205;DHT22;592;48.764;9.174;2023-03-03T15:29:54;11.40;97.40
1205;DHT22;592;48.764;9.174;2023-03-03T15:32:28;11.30;97.60
1205;DHT22;592;48.764;9.174;2023-03-03T15:35:01;11.10;97.70
1205;DHT22;592;48.764;9.174;2023-03-03T15:37:38;11.00;98.40
1205;DHT22;592;48.764;9.174;2023-03-03T15:40:16;10.90;97.70
1205;DHT22;592;48.764;9.174;2023-03-03T15:42:48;11.00;98.00
1205;DHT22;592;48.764;9.174;2023-03-03T15:45:22;10.80;98.20
1205;DHT22;592;48.764;9.174;2023-03-03T15:48:09;11.20;98.90
1205;DHT22;592;48.764;9.174;2023-03-03T15:50:49;11.00;97.90
1205;DHT22;592;48.764;9.174;2023-03-03T15:53:38;10.10;98.50
1205;DHT22;592;48.764;9.174;2023-03-03T15:56:18;10.10;99.40
1205;DHT22;592;48.764;9.174;2023-03-03T15:59:06;10.00;98.70
1205;DHT22;592;48.764;9.174;2023-03-03T16:01:40;9.80;99.90
1205;DHT22;592;48.764;9.174;2023-03-03T16:04:12;9.80;99.90
1205;DHT22;592;48.764;9.174;2023-03-03T16:06:45;9.80;99.90
1205;DHT22;592;48.764;9.174;2023-03-03T16:09:37;9.80;99.90
1205;DHT22;592;48.764;9.174;2023-03-03T16:12:15;9.80;99.90
1205;DHT22;592;48.764;9.174;2023-03-03T16:15:04;9.70;99.90
1205;DHT22;592;48.764;9.174;2023-03-03T16:17:41;9.50;99.90
1205;DHT22;592;48.764;9.174;2023-03-03T16:20:18;9.20;99.90
1205;DHT22;592;48.764;9.174;2023-03-03T16:23:09;9.00;99.90
1205;DHT22;592;48.764;9.174;2023-03-03T16:25:57;8.90;99.90
1205;DHT22;592;48.764;9.174;2023-03-03T16:28:34;8.80;99.90
1205;DHT22;592;48.764;9.174;2023-03-03T16:31:07;8.80;99.90
1205;DHT22;592;48.764;9.174;2023-03-03T16:33:39;8.80;99.90
1205;DHT22;592;48.764;9.174;2023-03-03T16:36:20;8.70;99.90
1205;DHT22;592;48.764;9.174;2023-03-03T16:38:52;8.70;99.90
1205;DHT22;592;48.764;9.174;2023-03-03T16:41:26;8.50;99.90
1205;DHT22;592;48.764;9.174;2023-03-03T16:44:03;8.50;99.90
1205;DHT22;592;48.764;9.174;2023-03-03T16:46:38;8.50;99.90
1205;DHT22;592;48.764;9.174;2023-03-03T16:49:08;8.40;99.90
1205;DHT22;592;48.764;9.174;2023-03-03T16:51:44;8.30;99.90
1205;DHT22;592;48.764;9.174;2023-03-03T16:54:17;8.30;99.90
1205;DHT22;592;48.764;9.174;2023-03-03T16:56:51;8.30;99.90
1205;DHT22;592;48.764;9.174;2023-03-03T16:59:44;8.20;99.90
1205;DHT22;592;48.764;9.174;2023-03-03T17:02:24;8.20;99.90
1205;DHT22;592;48.764;9.174;2023-03-03T17:04:55;8.10;99.90
1205;DHT22;592;48.764;9.174;2023-03-03T17:07:38;8.00;99.90
1205;DHT22;592;48.764;9.174;2023-03-03T17:10:18;8.00;99.90
1205;DHT22;592;48.764;9.174;2023-03-03T17:12:59;7.90;99.90